createdAt,value
2018-07-27T00:00:35.690Z,7.47
2018-07-27T00:03:11.157Z,10.13
2018-07-27T00:05:39.210Z,7.40
2018-07-27T00:08:07.260Z,8.57
2018-07-27T00:10:41.518Z,9.23
2018-07-27T00:13:09.582Z,9.10
2018-07-27T00:15:41.599Z,8.00
2018-07-27T00:18:11.393Z,9.40
2018-07-27T00:20:39.484Z,9.33
2018-07-27T00:23:13.233Z,7.43
2018-07-27T00:25:41.310Z,6.53
2018-07-27T00:28:12.867Z,6.80
2018-07-27T00:30:42.270Z,6.47
2018-07-27T00:33:12.241Z,9.23
2018-07-27T00:35:41.896Z,7.97
2018-07-27T00:38:17.243Z,7.93
2018-07-27T00:40:45.317Z,7.83
2018-07-27T00:43:21.454Z,9.73
2018-07-27T00:45:51.358Z,7.70
2018-07-27T00:48:19.388Z,7.20
2018-07-27T00:50:53.416Z,8.07
2018-07-27T00:53:31.128Z,14.10
2018-07-27T00:55:59.158Z,8.63
2018-07-27T00:58:27.217Z,8.57
2018-07-27T01:00:55.304Z,7.73
2018-07-27T01:03:31.164Z,7.97
2018-07-27T01:05:59.242Z,8.40
2018-07-27T01:08:27.301Z,8.93
2018-07-27T01:10:55.371Z,9.33
2018-07-27T01:13:31.340Z,7.70
2018-07-27T01:16:01.337Z,7.50
2018-07-27T01:18:31.317Z,7.43
2018-07-27T01:21:03.103Z,8.67
2018-07-27T01:23:31.761Z,9.23
2018-07-27T01:25:59.801Z,8.97
2018-07-27T01:28:27.893Z,8.53
2018-07-27T01:31:02.442Z,9.00
2018-07-27T01:33:30.539Z,9.33
2018-07-27T01:35:58.638Z,8.40
2018-07-27T01:38:26.696Z,14.20
2018-07-27T01:40:54.767Z,9.10
2018-07-27T01:43:31.081Z,9.27
2018-07-27T01:45:59.150Z,9.47
2018-07-27T01:48:27.259Z,9.60
2018-07-27T01:51:01.236Z,10.13
2018-07-27T01:53:29.276Z,11.50
2018-07-27T01:55:57.325Z,9.40
2018-07-27T01:58:25.434Z,14.17
2018-07-27T02:00:53.494Z,9.87
2018-07-27T02:03:31.559Z,10.80
2018-07-27T02:06:02.767Z,11.27
2018-07-27T02:08:31.520Z,10.17
2018-07-27T02:10:59.623Z,11.40
2018-07-27T02:13:33.397Z,10.63
2018-07-27T02:16:01.439Z,11.50
2018-07-27T02:18:29.517Z,11.30
2018-07-27T02:20:57.611Z,10.97
2018-07-27T02:23:25.663Z,11.83
2018-07-27T02:25:53.698Z,11.60
2018-07-27T02:28:21.769Z,12.20
2018-07-27T02:30:51.357Z,12.40
2018-07-27T02:33:19.454Z,11.97
2018-07-27T02:35:53.200Z,12.70
2018-07-27T02:38:21.879Z,12.47
2018-07-27T02:40:49.993Z,12.73
2018-07-27T02:43:21.597Z,13.00
2018-07-27T02:45:49.630Z,12.67
2018-07-27T02:48:17.699Z,12.50
2018-07-27T02:50:45.734Z,13.53
2018-07-27T02:53:20.947Z,13.10
2018-07-27T02:55:49.007Z,13.77
2018-07-27T02:58:16.874Z,14.13
2018-07-27T03:00:44.946Z,12.97
2018-07-27T03:03:22.560Z,13.53
2018-07-27T03:05:50.666Z,13.60
2018-07-27T03:08:22.670Z,14.43
2018-07-27T03:10:52.682Z,14.60
2018-07-27T03:13:21.959Z,13.93
2018-07-27T03:15:50.121Z,14.43
2018-07-27T03:18:18.206Z,13.93
2018-07-27T03:20:52.590Z,14.97
2018-07-27T03:23:21.688Z,13.63
2018-07-27T03:25:53.335Z,14.20
2018-07-27T03:28:31.466Z,14.57
2018-07-27T03:31:02.653Z,15.83
2018-07-27T03:33:31.514Z,16.47
2018-07-27T03:36:01.367Z,15.40
2018-07-27T03:38:32.920Z,15.77
2018-07-27T03:41:01.659Z,15.53
2018-07-27T03:43:31.579Z,16.03
2018-07-27T03:46:03.278Z,16.30
2018-07-27T03:48:40.759Z,17.60
2018-07-27T03:51:08.796Z,18.50
2018-07-27T03:53:36.860Z,16.20
2018-07-27T03:56:04.930Z,15.83
2018-07-27T03:58:40.874Z,16.53
2018-07-27T04:01:08.994Z,17.63
2018-07-27T04:03:49.503Z,16.33
2018-07-27T04:06:17.566Z,20.07
2018-07-27T04:08:45.679Z,16.67
2018-07-27T04:11:20.820Z,15.87
2018-07-27T04:13:48.902Z,15.57
2018-07-27T04:16:16.977Z,16.57
2018-07-27T04:18:45.107Z,17.67
2018-07-27T04:21:13.194Z,16.67
2018-07-27T04:23:41.328Z,17.70
2018-07-27T04:26:09.424Z,16.77
2018-07-27T04:28:37.529Z,16.90
2018-07-27T04:31:05.668Z,16.83
2018-07-27T04:33:41.744Z,17.63
2018-07-27T04:36:09.850Z,17.07
2018-07-27T04:38:37.926Z,16.43
2018-07-27T04:41:11.783Z,18.13
2018-07-27T04:43:42.916Z,16.90
2018-07-27T04:46:11.821Z,21.13
2018-07-27T04:48:41.418Z,17.67
2018-07-27T04:51:09.483Z,17.30
2018-07-27T04:53:43.212Z,16.47
2018-07-27T04:56:11.462Z,16.30
2018-07-27T04:58:43.004Z,17.17
2018-07-27T05:01:11.749Z,16.83
2018-07-27T05:03:39.834Z,18.03
2018-07-27T05:06:13.582Z,14.50
2018-07-27T05:08:56.625Z,18.90
2018-07-27T05:11:31.676Z,18.40
2018-07-27T05:13:59.802Z,15.13
2018-07-27T05:16:27.851Z,17.00
2018-07-27T05:18:55.947Z,15.07
2018-07-27T05:21:24.062Z,15.87
2018-07-27T05:23:52.209Z,15.60
2018-07-27T05:26:22.263Z,13.43
2018-07-27T05:28:51.525Z,13.90
2018-07-27T05:31:21.493Z,13.78
2018-07-27T05:33:49.589Z,14.28
2018-07-27T05:36:17.662Z,13.30
2018-07-27T05:38:45.791Z,12.73
2018-07-27T05:41:21.635Z,12.37
2018-07-27T05:43:49.759Z,12.03
2018-07-27T05:46:18.573Z,11.48
2018-07-27T05:48:47.131Z,11.05
2018-07-27T05:51:21.487Z,11.43
2018-07-27T05:53:49.593Z,11.22
2018-07-27T05:56:17.745Z,10.95
2018-07-27T05:58:51.944Z,12.18
2018-07-27T06:01:20.190Z,11.25
2018-07-27T06:03:48.368Z,11.00
2018-07-27T06:06:22.421Z,10.95
2018-07-27T06:08:50.622Z,11.33
2018-07-27T06:11:24.619Z,15.18
2018-07-27T06:13:52.737Z,10.70
2018-07-27T06:16:20.806Z,13.70
2018-07-27T06:18:53.532Z,18.23
2018-07-27T06:21:21.682Z,11.33
2018-07-27T06:23:49.973Z,12.55
2018-07-27T06:26:17.979Z,10.48
2018-07-27T06:28:46.100Z,18.77
2018-07-27T06:31:21.054Z,11.10
2018-07-27T06:33:49.172Z,11.83
2018-07-27T06:36:17.378Z,9.90
2018-07-27T06:38:45.532Z,9.23
2018-07-27T06:41:13.799Z,10.55
2018-07-27T06:43:41.976Z,14.98
2018-07-27T06:46:10.084Z,11.12
2018-07-27T06:48:38.146Z,9.85
2018-07-27T06:51:06.243Z,9.40
2018-07-27T06:53:34.346Z,11.73
2018-07-27T06:56:02.636Z,9.88
2018-07-27T06:58:30.794Z,9.88
2018-07-27T07:00:58.907Z,9.10
2018-07-27T07:03:32.661Z,10.80
2018-07-27T07:06:01.962Z,9.20
2018-07-27T07:08:30.073Z,11.88
2018-07-27T07:10:58.190Z,9.25
2018-07-27T07:13:26.279Z,9.83
2018-07-27T07:16:01.531Z,9.53
2018-07-27T07:18:29.698Z,9.75
2018-07-27T07:20:57.821Z,14.03
2018-07-27T07:23:31.623Z,9.10
2018-07-27T07:26:00.123Z,9.25
2018-07-27T07:28:27.977Z,11.22
2018-07-27T07:31:01.533Z,11.08
2018-07-27T07:33:32.760Z,12.75
2018-07-27T07:36:01.528Z,13.08
2018-07-27T07:38:31.572Z,12.50
2018-07-27T07:41:03.234Z,10.65
2018-07-27T07:43:31.273Z,10.70
2018-07-27T07:46:02.719Z,12.82
2018-07-27T07:48:32.281Z,10.10
2018-07-27T07:51:00.372Z,8.75
2018-07-27T07:53:28.489Z,12.45
2018-07-27T07:55:56.587Z,8.85
2018-07-27T07:58:24.687Z,9.10
2018-07-27T08:01:02.404Z,10.03
2018-07-27T08:03:30.466Z,10.98
2018-07-27T08:05:58.534Z,11.48
2018-07-27T08:08:26.679Z,8.55
2018-07-27T08:10:54.770Z,8.03
2018-07-27T08:13:22.813Z,9.70
2018-07-27T08:15:52.355Z,8.95
2018-07-27T08:18:20.503Z,17.27
2018-07-27T08:20:48.631Z,10.28
2018-07-27T08:23:16.850Z,8.98
2018-07-27T08:26:58.657Z,8.73
2018-07-27T08:29:42.015Z,10.88
2018-07-27T08:32:10.282Z,9.73
2018-07-27T08:34:38.540Z,8.13
2018-07-27T08:37:06.810Z,10.50
2018-07-27T08:39:42.699Z,8.60
2018-07-27T08:42:10.839Z,12.30
2018-07-27T08:44:41.010Z,10.30
2018-07-27T08:47:09.214Z,9.20
2018-07-27T08:49:37.259Z,11.73
2018-07-27T08:52:11.027Z,15.43
2018-07-27T08:54:43.029Z,11.50
2018-07-27T08:57:11.771Z,10.32
2018-07-27T08:59:43.311Z,10.15
2018-07-27T09:02:11.399Z,12.65
2018-07-27T09:04:42.625Z,10.03
2018-07-27T09:07:12.366Z,10.20
2018-07-27T09:09:42.066Z,11.93
2018-07-27T09:12:10.190Z,9.80
2018-07-27T09:14:41.613Z,12.68
2018-07-27T09:17:13.234Z,8.25
2018-07-27T09:19:41.303Z,14.45
2018-07-27T09:22:09.451Z,8.08
2018-07-27T09:24:37.726Z,12.53
2018-07-27T09:27:05.910Z,7.90
2018-07-27T09:29:41.058Z,10.93
2018-07-27T09:32:09.129Z,7.35
2018-07-27T09:34:37.285Z,6.40
2018-07-27T09:37:05.418Z,10.48
2018-07-27T09:39:33.573Z,9.20
2018-07-27T09:42:01.659Z,8.15
2018-07-27T09:44:29.781Z,10.10
2018-07-27T09:46:58.019Z,11.73
2018-07-27T09:49:26.136Z,8.13
2018-07-27T09:51:54.378Z,10.50
2018-07-27T09:54:32.745Z,14.60
2018-07-27T09:57:00.921Z,7.53
2018-07-27T09:59:29.052Z,9.83
2018-07-27T10:01:57.142Z,10.03
2018-07-27T10:04:31.619Z,6.90
2018-07-27T10:07:02.814Z,7.50
2018-07-27T10:09:31.583Z,9.25
2018-07-27T10:12:03.217Z,7.20
2018-07-27T10:14:31.935Z,8.05
2018-07-27T10:17:01.591Z,6.90
2018-07-27T10:19:29.706Z,7.00
2018-07-27T10:21:57.887Z,10.80
2018-07-27T10:24:31.619Z,9.40
2018-07-27T10:27:02.778Z,11.05
2018-07-27T10:29:30.924Z,8.93
2018-07-27T10:31:59.082Z,7.20
2018-07-27T10:34:28.336Z,8.10
2018-07-27T10:37:02.098Z,7.55
2018-07-27T10:39:30.243Z,7.53
2018-07-27T10:41:58.350Z,6.20
2018-07-27T10:44:26.548Z,8.03
2018-07-27T10:46:54.662Z,10.28
2018-07-27T10:49:31.038Z,6.00
2018-07-27T10:52:02.298Z,6.20
2018-07-27T10:54:32.138Z,8.68
2018-07-27T10:57:01.838Z,8.33
2018-07-27T10:59:29.988Z,9.25
2018-07-27T11:02:01.495Z,9.73
2018-07-27T11:04:33.125Z,8.70
2018-07-27T11:07:01.963Z,5.92
2018-07-27T11:09:30.196Z,9.25
2018-07-27T11:12:03.811Z,9.80
2018-07-27T11:14:31.910Z,7.50
2018-07-27T11:17:00.000Z,7.25
2018-07-27T11:19:28.089Z,7.25
2018-07-27T11:21:56.240Z,9.63
2018-07-27T11:24:31.650Z,4.45
2018-07-27T11:26:59.795Z,6.85
2018-07-27T11:29:28.681Z,11.20
2018-07-27T11:32:02.488Z,6.58
2018-07-27T11:34:30.621Z,5.20
2018-07-27T11:36:58.802Z,6.80
2018-07-27T11:39:32.685Z,5.33
2018-07-27T11:42:01.817Z,4.12
2018-07-27T11:44:31.418Z,3.50
2018-07-27T11:47:03.164Z,7.33
2018-07-27T11:49:32.058Z,4.67
2018-07-27T11:52:00.090Z,6.97
2018-07-27T11:54:31.402Z,5.90
2018-07-27T11:57:03.269Z,7.08
2018-07-27T11:59:41.388Z,4.10
2018-07-27T12:02:13.374Z,4.22
2018-07-27T12:04:51.750Z,4.25
2018-07-27T12:07:20.100Z,7.95
2018-07-27T12:09:48.235Z,5.80
2018-07-27T12:12:16.384Z,4.67
2018-07-27T12:14:51.387Z,4.40
2018-07-27T12:17:19.689Z,4.70
2018-07-27T12:19:53.726Z,4.37
2018-07-27T12:22:22.042Z,5.67
2018-07-27T12:24:50.452Z,3.70
2018-07-27T12:27:18.565Z,3.00
2018-07-27T12:29:46.695Z,3.33
2018-07-27T12:32:20.981Z,3.40
2018-07-27T12:34:49.096Z,3.72
2018-07-27T12:37:17.194Z,4.95
2018-07-27T12:39:45.296Z,3.30
2018-07-27T12:42:21.017Z,3.20
2018-07-27T12:44:53.050Z,3.22
2018-07-27T12:47:21.920Z,2.95
2018-07-27T12:49:51.440Z,4.28
2018-07-27T12:52:23.314Z,2.60
2018-07-27T12:55:01.403Z,3.40
2018-07-27T12:57:29.572Z,4.50
2018-07-27T13:00:03.582Z,5.10
2018-07-27T13:02:31.725Z,4.87
2018-07-27T13:05:03.472Z,3.45
2018-07-27T13:07:31.593Z,3.55
2018-07-27T13:10:05.270Z,2.90
2018-07-27T13:12:34.392Z,3.00
2018-07-27T13:15:12.784Z,2.92
2018-07-27T13:17:40.994Z,3.08
2018-07-27T13:20:09.154Z,2.80
2018-07-27T13:22:37.443Z,4.45
2018-07-27T13:25:11.813Z,3.20
2018-07-27T13:27:39.979Z,4.60
2018-07-27T13:30:11.552Z,4.33
2018-07-27T13:32:39.719Z,2.90
2018-07-27T13:37:42.144Z,3.67
2018-07-27T13:40:10.310Z,2.92
2018-07-27T13:42:38.217Z,3.10
2018-07-27T13:45:06.478Z,2.85
2018-07-27T13:47:41.682Z,2.67
2018-07-27T13:50:09.905Z,2.95
2018-07-27T13:52:38.084Z,4.40
2018-07-27T13:55:12.631Z,3.27
2018-07-27T13:57:40.706Z,4.25
2018-07-27T14:00:08.886Z,5.95
2018-07-27T14:02:37.018Z,4.28
2018-07-27T14:05:11.627Z,3.42
2018-07-27T14:07:39.769Z,2.50
2018-07-27T14:10:10.700Z,6.50
2018-07-27T14:12:41.935Z,3.00
2018-07-27T14:15:11.888Z,3.80
2018-07-27T14:17:40.007Z,2.90
2018-07-27T14:20:12.065Z,3.87
2018-07-27T14:22:41.728Z,4.40
2018-07-27T14:25:11.473Z,2.90
2018-07-27T14:27:43.116Z,2.40
2018-07-27T14:30:11.265Z,2.98
2018-07-27T14:32:39.406Z,3.02
2018-07-27T14:35:07.653Z,3.02
2018-07-27T14:37:35.726Z,2.67
2018-07-27T14:40:11.357Z,2.70
2018-07-27T14:42:39.658Z,3.27
2018-07-27T14:45:07.824Z,3.62
2018-07-27T14:47:42.308Z,4.75
2018-07-27T14:50:10.457Z,2.90
2018-07-27T14:52:42.224Z,4.25
2018-07-27T14:55:11.963Z,6.65
2018-07-27T14:57:40.109Z,3.70
2018-07-27T15:00:08.618Z,2.60
2018-07-27T15:02:42.421Z,3.65
2018-07-27T15:05:11.931Z,3.62
2018-07-27T15:07:40.033Z,3.17
2018-07-27T15:10:08.144Z,3.30
2018-07-27T15:12:36.237Z,4.03
2018-07-27T15:15:04.337Z,3.58
2018-07-27T15:17:42.294Z,4.37
2018-07-27T15:20:10.516Z,5.20
2018-07-27T15:22:38.803Z,4.03
2018-07-27T15:25:13.220Z,3.40
2018-07-27T15:27:41.344Z,3.58
2018-07-27T15:30:09.518Z,3.52
2018-07-27T15:32:37.797Z,4.58
2018-07-27T15:35:12.260Z,3.55
2018-07-27T15:37:40.366Z,4.17
2018-07-27T15:40:08.522Z,6.67
2018-07-27T15:42:36.642Z,3.37
2018-07-27T15:45:05.036Z,4.15
2018-07-27T15:47:41.464Z,5.70
2018-07-27T15:50:12.666Z,5.87
2018-07-27T15:52:40.801Z,5.03
2018-07-27T15:55:12.047Z,3.87
2018-07-27T15:57:41.749Z,4.50
2018-07-27T16:00:13.308Z,4.28
2018-07-27T16:02:41.474Z,7.05
2018-07-27T16:05:09.680Z,6.12
2018-07-27T16:07:37.876Z,4.60
2018-07-27T16:10:05.978Z,4.40
2018-07-27T16:12:34.252Z,5.70
2018-07-27T16:15:12.393Z,5.55
2018-07-27T16:17:40.612Z,3.87
2018-07-27T16:20:12.136Z,6.10
2018-07-27T16:22:40.225Z,6.00
2018-07-27T16:25:08.393Z,6.42
2018-07-27T16:27:36.362Z,5.42
2018-07-27T16:30:04.718Z,3.50
2018-07-27T16:32:42.488Z,4.12
2018-07-27T16:35:11.841Z,4.33
2018-07-27T16:37:39.918Z,6.45
2018-07-27T16:40:11.441Z,3.98
2018-07-27T16:42:43.145Z,4.42
2018-07-27T16:45:11.219Z,4.20
2018-07-27T16:47:39.246Z,4.25
2018-07-27T16:50:08.073Z,5.50
2018-07-27T16:52:36.208Z,6.00
2018-07-27T16:55:04.672Z,6.83
2018-07-27T16:57:32.869Z,4.10
2018-07-27T17:00:00.965Z,4.35
2018-07-27T17:02:32.304Z,5.10
2018-07-27T17:05:00.444Z,4.25
2018-07-27T17:07:31.642Z,4.83
2018-07-27T17:10:04.250Z,4.53
2018-07-27T17:12:42.696Z,4.90
2018-07-27T17:15:10.842Z,4.83
2018-07-27T17:17:38.900Z,4.75
2018-07-27T17:20:07.945Z,8.70
2018-07-27T17:22:42.306Z,4.83
2018-07-27T17:25:10.525Z,6.97
2018-07-27T17:27:41.937Z,4.50
2018-07-27T17:30:11.884Z,4.15
2018-07-27T17:32:41.435Z,4.53
2018-07-27T17:35:09.652Z,4.78
2018-07-27T17:37:37.840Z,4.75
2018-07-27T17:40:12.210Z,5.42
2018-07-27T17:42:40.460Z,4.80
2018-07-27T17:45:09.092Z,4.85
2018-07-27T17:47:37.430Z,4.78
2018-07-27T17:50:05.498Z,4.58
2018-07-27T17:52:40.933Z,5.50
2018-07-27T17:55:09.052Z,4.87
2018-07-27T17:57:37.170Z,5.00
2018-07-27T18:00:06.072Z,6.97
2018-07-27T18:02:41.678Z,8.80
2018-07-27T18:05:09.581Z,8.95
2018-07-27T18:07:41.458Z,6.53
2018-07-27T18:10:13.240Z,5.55
2018-07-27T18:12:41.435Z,7.40
2018-07-27T18:15:10.050Z,4.58
2018-07-27T18:17:38.187Z,5.12
2018-07-27T18:20:08.125Z,4.42
2018-07-27T18:22:36.260Z,4.17
2018-07-27T18:25:12.827Z,4.37
2018-07-27T18:27:41.558Z,8.95
2018-07-27T18:30:21.856Z,4.83
2018-07-27T18:32:53.238Z,5.47
2018-07-27T18:35:21.819Z,5.22
2018-07-27T18:37:49.923Z,6.10
2018-07-27T18:40:18.061Z,5.00
2018-07-27T18:42:52.351Z,9.48
2018-07-27T18:45:21.493Z,6.05
2018-07-27T18:47:53.216Z,7.75
2018-07-27T18:50:21.394Z,5.58
2018-07-27T18:52:49.504Z,22.58
2018-07-27T18:55:17.697Z,18.95
2018-07-27T18:57:45.821Z,16.85
2018-07-27T19:00:13.898Z,18.05
2018-07-27T19:02:52.208Z,22.05
2018-07-27T19:05:20.437Z,11.63
2018-07-27T19:07:48.547Z,8.58
2018-07-27T19:10:16.664Z,5.85
2018-07-27T19:12:51.740Z,6.62
2018-07-27T19:15:19.885Z,6.33
2018-07-27T19:17:51.369Z,5.70
2018-07-27T19:20:19.490Z,8.00
2018-07-27T19:22:53.100Z,9.53
2018-07-27T19:25:22.089Z,8.03
2018-07-27T19:27:51.771Z,8.53
2018-07-27T19:30:21.777Z,10.43
2018-07-27T19:32:49.903Z,7.50
2018-07-27T19:35:23.751Z,8.80
2018-07-27T19:38:02.477Z,9.98
2018-07-27T19:40:30.533Z,9.48
2018-07-27T19:43:02.081Z,11.63
2018-07-27T19:45:31.965Z,7.72
2018-07-27T19:48:00.026Z,9.18
2018-07-27T19:50:28.109Z,8.08
2018-07-27T19:52:56.041Z,7.17
2018-07-27T19:55:31.369Z,10.95
2018-07-27T19:57:59.787Z,11.65
2018-07-27T20:00:33.744Z,11.40
2018-07-27T20:03:11.498Z,16.12
2018-07-27T20:05:41.429Z,8.25
2018-07-27T20:08:13.242Z,11.50
2018-07-27T20:10:42.069Z,10.35
2018-07-27T20:13:11.307Z,10.93
2018-07-27T20:15:42.415Z,9.28
2018-07-27T20:18:12.157Z,9.65
2018-07-27T20:20:41.767Z,10.05
2018-07-27T20:23:09.968Z,11.97
2018-07-27T20:25:38.366Z,8.73
2018-07-27T20:28:12.568Z,9.70
2018-07-27T20:30:40.662Z,9.40
2018-07-27T20:33:12.478Z,10.18
2018-07-27T20:35:40.542Z,9.48
2018-07-27T20:38:08.382Z,9.13
2018-07-27T20:40:36.441Z,9.40
2018-07-27T20:43:11.511Z,10.40
2018-07-27T20:45:39.788Z,10.38
2018-07-27T20:48:07.959Z,9.10
2018-07-27T20:50:42.465Z,10.23
2018-07-27T20:53:10.574Z,10.47
2018-07-27T20:55:38.665Z,9.38
2018-07-27T20:58:06.817Z,10.15
2018-07-27T21:00:41.086Z,10.00
2018-07-27T21:03:09.174Z,10.32
2018-07-27T21:05:37.277Z,11.38
2018-07-27T21:08:10.962Z,9.53
2018-07-27T21:10:42.389Z,10.58
2018-07-27T21:13:11.342Z,12.40
2018-07-27T21:15:42.632Z,11.18
2018-07-27T21:18:12.282Z,11.90
2018-07-27T21:20:42.143Z,11.37
2018-07-27T21:23:10.224Z,10.83
2018-07-27T21:25:38.325Z,10.20
2018-07-27T21:28:06.264Z,10.47
2018-07-27T21:30:41.077Z,13.23
2018-07-27T21:33:09.210Z,11.23
2018-07-27T21:35:43.399Z,10.33
2018-07-27T21:40:56.503Z,10.10
2018-07-27T21:43:24.567Z,10.80
2018-07-27T21:45:52.719Z,14.40
2018-07-27T21:48:20.685Z,10.73
2018-07-27T21:50:48.781Z,12.30
2018-07-27T21:53:16.956Z,11.30
2018-07-27T21:55:51.698Z,10.50
2018-07-27T21:58:19.782Z,13.20
2018-07-27T22:00:48.256Z,11.67
2018-07-27T22:03:22.663Z,11.53
2018-07-27T22:05:50.716Z,11.87
2018-07-27T22:08:18.989Z,11.50
2018-07-27T22:10:52.533Z,11.90
2018-07-27T22:13:20.858Z,12.60
2018-07-27T22:15:48.851Z,13.63
2018-07-27T22:21:12.001Z,12.00
2018-07-27T22:23:40.194Z,11.27
2018-07-27T22:26:14.627Z,13.80
2018-07-27T22:28:42.788Z,14.10
2018-07-27T22:31:11.050Z,14.43
2018-07-27T22:33:39.156Z,12.07
2018-07-27T22:36:07.410Z,16.47
2018-07-27T22:38:35.710Z,14.03
2018-07-27T22:41:03.796Z,12.90
2018-07-27T22:43:31.851Z,15.13
2018-07-27T22:45:59.996Z,17.53
2018-07-27T22:48:28.079Z,14.13
2018-07-27T22:51:01.428Z,18.13
2018-07-27T22:53:33.050Z,14.40
2018-07-27T22:56:01.120Z,15.23
2018-07-27T22:58:29.292Z,17.70
2018-07-27T23:00:57.539Z,14.37
2018-07-27T23:03:25.622Z,13.87
2018-07-27T23:06:01.008Z,14.83
2018-07-27T23:11:21.819Z,16.53
2018-07-27T23:13:49.915Z,19.63
2018-07-27T23:16:18.009Z,14.97
2018-07-27T23:18:46.110Z,20.53
2018-07-27T23:21:20.950Z,20.60
2018-07-27T23:23:49.023Z,16.27
2018-07-27T23:26:23.580Z,16.70
2018-07-27T23:29:01.850Z,16.13
2018-07-27T23:31:29.938Z,16.37
2018-07-27T23:33:58.047Z,17.50
2018-07-27T23:36:26.254Z,17.73
2018-07-27T23:38:54.353Z,18.83
2018-07-27T23:41:32.096Z,16.00
2018-07-27T23:44:00.151Z,16.60
2018-07-27T23:46:28.274Z,16.20
2018-07-27T23:49:02.283Z,16.13
2018-07-27T23:51:35.545Z,18.03
2018-07-27T23:54:11.314Z,17.70
2018-07-27T23:56:39.520Z,17.57
2018-07-27T23:59:07.728Z,17.20
